Time;durP1;ratioP1;P1;durP2;ratioP2;P2;SDS_P1;SDS_P2;PMS_P1;PMS_P2;Temp;Humidity;BMP_temperature;BMP_pressure;BME280_temperature;BME280_humidity;BME280_pressure;Samples;Min_cycle;Max_cycle;Signal;HPM_P1;HPM_P2
2022/01/18 00:01:28;;;;;;;5.05;1.42;;;19.80;45.90;;;;;;5071123;28;20456;-63
2022/01/18 00:03:54;;;;;;;6.13;1.55;;;19.80;45.00;;;;;;5070417;28;20116;-62
2022/01/18 00:06:20;;;;;;;3.45;1.45;;;19.80;45.10;;;;;;5053744;28;20510;-62
2022/01/18 00:08:45;;;;;;;4.18;1.50;;;19.80;45.10;;;;;;5067461;28;20041;-62
2022/01/18 00:11:11;;;;;;;5.05;1.73;;;19.80;45.20;;;;;;5075053;28;20398;-62
2022/01/18 00:13:43;;;;;;;4.53;1.65;;;19.80;45.10;;;;;;5074362;28;20132;-62
2022/01/18 00:16:25;;;;;;;4.68;1.67;;;19.80;45.10;;;;;;5056041;28;20430;-62
2022/01/18 00:18:52;;;;;;;4.50;1.70;;;19.80;45.10;;;;;;5072918;28;20158;-62
2022/01/18 00:21:49;;;;;;;5.80;1.60;;;19.70;45.10;;;;;;5069387;28;20448;-62
2022/01/18 00:24:14;;;;;;;3.80;1.50;;;19.70;45.10;;;;;;5075122;28;20024;-62
2022/01/18 00:26:40;;;;;;;5.53;1.55;;;19.70;45.20;;;;;;5060144;28;20048;-63
2022/01/18 00:29:10;;;;;;;3.38;1.55;;;19.70;45.20;;;;;;5069552;28;20119;-63
2022/01/18 00:34:28;;;;;;;4.07;1.90;;;19.70;45.20;;;;;;5070938;28;20056;-63
2022/01/18 00:37:04;;;;;;;4.57;1.20;;;19.60;45.20;;;;;;5074395;28;20039;-62
2022/01/18 00:39:30;;;;;;;4.90;1.70;;;19.60;45.20;;;;;;5073396;28;20400;-62
2022/01/18 00:41:55;;;;;;;4.30;1.85;;;19.60;45.30;;;;;;5055728;28;20040;-61
2022/01/18 00:44:21;;;;;;;3.83;1.45;;;19.60;45.30;;;;;;5038791;28;20036;-62
2022/01/18 00:46:47;;;;;;;4.25;1.50;;;19.60;45.30;;;;;;5055569;28;20464;-62
2022/01/18 00:49:13;;;;;;;5.07;1.75;;;19.60;45.30;;;;;;5056561;28;20549;-63
2022/01/18 00:51:41;;;;;;;5.55;1.30;;;19.60;45.30;;;;;;5070895;28;20035;-62
2022/01/18 00:54:10;;;;;;;3.53;1.50;;;19.50;45.30;;;;;;5073619;28;20387;-61
2022/01/18 00:56:40;;;;;;;3.90;1.65;;;19.60;45.40;;;;;;5056394;28;20032;-63
2022/01/18 00:59:06;;;;;;;3.45;1.30;;;19.50;45.30;;;;;;5072099;28;20036;-64
2022/01/18 01:01:34;;;;;;;6.00;1.83;;;19.50;45.30;;;;;;5067960;28;20375;-64
2022/01/18 01:04:02;;;;;;;5.45;1.60;;;19.50;45.30;;;;;;5059364;28;20065;-64
2022/01/18 01:06:29;;;;;;;5.10;1.60;;;19.50;45.20;;;;;;5073903;28;20035;-64
2022/01/18 01:08:55;;;;;;;5.07;1.70;;;19.50;45.20;;;;;;5071730;28;20036;-64
2022/01/18 01:11:22;;;;;;;3.30;1.70;;;19.50;45.10;;;;;;5062748;28;20038;-62
2022/01/18 01:13:51;;;;;;;3.13;1.45;;;19.50;45.00;;;;;;5071792;28;20025;-62
2022/01/18 01:19:17;;;;;;;5.63;1.77;;;19.50;45.00;;;;;;5059911;28;20033;-63
2022/01/18 01:32:15;;;;;;;5.32;1.85;;;19.40;45.00;;;;;;5067789;28;20113;-64
2022/01/18 01:43:29;;;;;;;6.07;1.90;;;19.30;44.90;;;;;;5069771;28;20570;-62
2022/01/18 01:45:56;;;;;;;6.88;2.00;;;19.20;44.80;;;;;;5054447;28;20024;-62
2022/01/18 01:48:23;;;;;;;4.68;1.80;;;19.20;44.80;;;;;;5057750;28;20025;-62
2022/01/18 01:53:17;;;;;;;4.75;1.63;;;19.20;44.80;;;;;;5063303;28;20032;-62
2022/01/18 01:55:43;;;;;;;4.85;1.58;;;19.10;44.70;;;;;;5072792;28;20021;-62
2022/01/18 01:58:09;;;;;;;4.63;1.45;;;19.20;44.80;;;;;;5072786;28;20387;-63
2022/01/18 02:00:45;;;;;;;3.83;1.60;;;19.20;44.80;;;;;;5073355;28;20032;-63
2022/01/18 02:03:12;;;;;;;6.20;1.67;;;19.20;44.80;;;;;;5061567;28;20020;-62
2022/01/18 02:05:38;;;;;;;4.68;1.50;;;19.20;44.80;;;;;;5069251;28;20071;-62
2022/01/18 02:08:07;;;;;;;5.57;2.03;;;19.10;44.70;;;;;;5071109;28;20028;-62
2022/01/18 02:10:34;;;;;;;4.70;1.50;;;19.10;44.70;;;;;;5057504;28;20029;-62
2022/01/18 02:13:00;;;;;;;7.53;2.13;;;19.10;44.70;;;;;;5061039;28;20037;-62
2022/01/18 02:15:25;;;;;;;4.15;1.63;;;19.10;44.70;;;;;;5074350;28;20055;-62
2022/01/18 02:23:24;;;;;;;6.30;1.60;;;19.00;44.70;;;;;;5061842;28;20035;-62
2022/01/18 02:25:50;;;;;;;5.32;2.08;;;19.00;44.80;;;;;;5064738;28;20388;-62
2022/01/18 02:28:18;;;;;;;4.95;1.80;;;19.00;44.70;;;;;;5067325;28;20032;-62
2022/01/18 02:30:44;;;;;;;5.75;1.80;;;19.00;45.70;;;;;;5053705;28;20464;-62
2022/01/18 02:33:10;;;;;;;3.70;1.85;;;19.00;44.70;;;;;;5059934;28;20082;-62
2022/01/18 02:35:36;;;;;;;5.78;1.90;;;19.00;44.70;;;;;;5053811;28;20045;-62
2022/01/18 02:38:04;;;;;;;3.88;1.73;;;19.00;44.70;;;;;;5060421;28;20043;-62
2022/01/18 02:40:31;;;;;;;5.80;1.90;;;19.00;44.70;;;;;;5073463;28;20020;-62
2022/01/18 02:43:00;;;;;;;3.47;1.50;;;19.00;44.70;;;;;;5071282;28;20490;-62
2022/01/18 02:45:27;;;;;;;7.22;1.70;;;19.00;45.70;;;;;;5053594;28;20024;-62
2022/01/18 02:47:53;;;;;;;3.10;1.30;;;18.90;44.60;;;;;;5058229;28;20025;-62
2022/01/18 02:50:20;;;;;;;4.20;1.60;;;18.90;44.60;;;;;;5070759;28;20510;-62
2022/01/18 02:52:46;;;;;;;4.32;1.45;;;18.90;44.60;;;;;;5066723;28;20029;-62
2022/01/18 02:55:12;;;;;;;5.65;1.70;;;18.90;44.60;;;;;;5071604;28;20043;-62
2022/01/18 02:57:52;;;;;;;4.43;1.50;;;18.90;44.50;;;;;;5064276;28;20036;-63
2022/01/18 03:00:26;;;;;;;3.78;1.70;;;18.90;44.60;;;;;;5061135;28;20029;-63
2022/01/18 03:03:13;;;;;;;2.88;1.30;;;18.80;44.50;;;;;;5072359;28;20035;-63
2022/01/18 03:05:45;;;;;;;5.18;1.85;;;18.80;44.60;;;;;;5070222;28;20028;-63
2022/01/18 03:08:12;;;;;;;;;;;18.80;44.60;;;;;;5071323;28;20379;-62
2022/01/18 03:10:39;;;;;;;4.50;1.50;;;18.80;44.60;;;;;;5064800;28;19909;-62
2022/01/18 03:13:05;;;;;;;4.50;1.50;;;18.70;44.60;;;;;;5060115;28;20037;-62
2022/01/18 03:15:33;;;;;;;5.22;1.73;;;18.70;44.60;;;;;;5064480;28;20031;-62
2022/01/18 03:18:00;;;;;;;7.03;2.15;;;18.80;44.60;;;;;;5067673;28;20020;-62
2022/01/18 03:20:26;;;;;;;5.35;2.00;;;18.70;44.60;;;;;;5071540;28;20094;-63
2022/01/18 03:22:52;;;;;;;5.05;1.80;;;18.70;44.50;;;;;;5067540;28;20380;-64
2022/01/18 03:28:05;;;;;;;5.93;1.92;;;18.70;44.50;;;;;;5058499;28;20036;-64
2022/01/18 03:30:39;;;;;;;3.40;1.77;;;18.70;44.50;;;;;;5071857;28;20039;-62
2022/01/18 03:33:08;;;;;;;3.58;1.33;;;18.70;44.60;;;;;;5064540;28;20034;-62
2022/01/18 03:35:34;;;;;;;4.68;1.67;;;18.70;44.50;;;;;;5054131;28;20045;-62
2022/01/18 03:38:00;;;;;;;5.95;1.75;;;18.70;44.60;;;;;;5072184;28;20076;-62
2022/01/18 03:40:26;;;;;;;4.82;1.75;;;18.70;44.60;;;;;;5063732;28;20097;-62
2022/01/18 03:42:52;;;;;;;5.28;1.90;;;18.70;44.60;;;;;;5071357;28;20032;-62
2022/01/18 03:45:23;;;;;;;4.80;1.70;;;18.70;44.60;;;;;;5067621;28;20033;-62
2022/01/18 03:47:49;;;;;;;4.93;1.80;;;18.70;44.50;;;;;;5057943;28;20089;-62
2022/01/18 03:50:16;;;;;;;4.80;1.60;;;18.70;44.60;;;;;;5056576;28;20103;-63
2022/01/18 03:52:43;;;;;;;4.88;1.70;;;18.70;44.50;;;;;;5071924;28;20151;-63
2022/01/18 03:55:12;;;;;;;4.60;1.85;;;18.70;44.50;;;;;;5069665;28;20032;-64
2022/01/18 03:57:38;;;;;;;3.72;1.83;;;18.60;44.50;;;;;;5075360;28;20041;-64
2022/01/18 04:00:23;;;;;;;4.20;1.60;;;18.60;44.50;;;;;;5066320;28;20033;-64
2022/01/18 04:02:49;;;;;;;6.00;2.15;;;18.60;44.50;;;;;;5070275;28;20032;-64
2022/01/18 04:05:16;;;;;;;3.38;1.90;;;18.60;44.50;;;;;;5062312;28;20036;-64
2022/01/18 04:07:42;;;;;;;5.32;1.85;;;18.60;44.50;;;;;;5071807;28;20031;-64
2022/01/18 04:10:09;;;;;;;5.68;1.73;;;18.60;44.50;;;;;;5063653;28;20491;-62
2022/01/18 04:12:35;;;;;;;4.70;2.03;;;18.60;45.40;;;;;;5071536;28;20033;-62
2022/01/18 04:15:06;;;;;;;6.43;2.25;;;18.60;44.50;;;;;;5064070;28;20046;-62
2022/01/18 04:25:55;;;;;;;3.58;1.60;;;18.50;44.40;;;;;;5059060;28;20048;-64
2022/01/18 04:28:41;;;;;;;5.75;1.95;;;18.50;44.50;;;;;;5073195;28;20111;-64
2022/01/18 04:31:08;;;;;;;3.67;1.80;;;18.50;44.60;;;;;;5061476;28;20039;-64
2022/01/18 04:33:35;;;;;;;5.68;2.00;;;18.50;44.60;;;;;;5071542;28;20084;-64
2022/01/18 04:36:03;;;;;;;3.35;1.77;;;18.40;44.50;;;;;;5073639;28;20123;-63
2022/01/18 04:38:28;;;;;;;5.15;1.80;;;18.50;45.50;;;;;;5073692;28;20056;-62
2022/01/18 04:40:59;;;;;;;5.80;2.40;;;18.40;44.50;;;;;;5073822;28;20048;-62
2022/01/18 04:43:40;;;;;;;5.75;2.10;;;18.40;44.50;;;;;;5068820;28;20384;-63
2022/01/18 04:48:51;;;;;;;3.80;1.70;;;18.40;44.50;;;;;;5068355;28;20048;-63
2022/01/18 04:51:17;;;;;;;6.60;2.28;;;18.40;44.50;;;;;;5074297;28;20434;-63
2022/01/18 04:53:49;;;;;;;5.05;2.05;;;18.40;44.60;;;;;;5065415;28;20035;-62
2022/01/18 04:56:18;;;;;;;5.18;1.75;;;18.40;44.60;;;;;;5070570;28;20045;-62
2022/01/18 04:58:44;;;;;;;5.15;2.20;;;18.30;44.50;;;;;;5072074;28;20024;-62
2022/01/18 05:01:11;;;;;;;4.50;1.95;;;18.30;44.60;;;;;;5058134;28;20035;-62
2022/01/18 05:03:37;;;;;;;5.47;1.95;;;18.30;44.60;;;;;;5065271;28;20123;-62
2022/01/18 05:06:13;;;;;;;5.47;1.83;;;18.40;44.70;;;;;;5055146;28;20105;-62
2022/01/18 05:08:40;;;;;;;3.53;1.70;;;18.30;44.60;;;;;;5063653;28;20025;-62
2022/01/18 05:11:08;;;;;;;6.10;2.22;;;18.30;44.70;;;;;;5056640;28;20029;-62
2022/01/18 05:21:29;;;;;;;5.70;1.90;;;18.30;44.70;;;;;;5074189;28;20067;-62
2022/01/18 05:23:55;;;;;;;4.10;2.17;;;18.30;44.70;;;;;;5070289;28;20025;-62
2022/01/18 05:26:25;;;;;;;7.28;1.88;;;18.20;44.70;;;;;;5073007;28;20055;-62
2022/01/18 05:28:51;;;;;;;4.70;2.00;;;18.30;44.80;;;;;;5072742;28;20029;-62
2022/01/18 05:31:17;;;;;;;4.05;2.15;;;18.20;44.70;;;;;;5059317;28;20436;-62
2022/01/18 05:33:43;;;;;;;7.50;2.40;;;18.20;44.70;;;;;;5068200;28;20033;-62
2022/01/18 05:36:10;;;;;;;5.38;1.95;;;18.20;44.70;;;;;;5021771;28;1099676;-62
2022/01/18 05:38:37;;;;;;;4.53;1.88;;;18.20;44.70;;;;;;5064726;28;20025;-62
2022/01/18 05:41:04;;;;;;;6.47;2.35;;;18.20;44.70;;;;;;5073320;28;20025;-63
2022/01/18 05:43:30;;;;;;;6.30;2.08;;;18.20;44.80;;;;;;5067224;28;20415;-63
2022/01/18 05:45:55;;;;;;;5.47;2.10;;;18.20;44.80;;;;;;5054484;28;20025;-63
2022/01/18 05:48:21;;;;;;;5.10;2.10;;;18.20;44.80;;;;;;5069752;28;20033;-63
2022/01/18 05:50:47;;;;;;;4.57;1.88;;;18.20;44.80;;;;;;5068680;28;20041;-63
2022/01/18 05:53:12;;;;;;;5.45;2.30;;;18.20;44.80;;;;;;5054971;28;20037;-63
2022/01/18 05:55:38;;;;;;;4.68;2.10;;;18.20;44.80;;;;;;5065061;28;20065;-61
2022/01/18 05:58:04;;;;;;;5.05;2.00;;;18.10;44.70;;;;;;5065531;28;20040;-62
2022/01/18 06:00:31;;;;;;;5.95;2.42;;;18.10;44.70;;;;;;5062383;28;20112;-62
2022/01/18 06:08:08;;;;;;;4.65;1.90;;;18.10;44.70;;;;;;5072248;28;20047;-62
2022/01/18 06:10:34;;;;;;;4.57;2.28;;;18.10;44.80;;;;;;5058360;28;20033;-61
2022/01/18 06:13:02;;;;;;;5.90;2.38;;;18.10;44.80;;;;;;5065540;28;20060;-62
2022/01/18 06:15:28;;;;;;;3.85;2.28;;;18.00;44.80;;;;;;5070378;28;20041;-61
2022/01/18 06:17:54;;;;;;;4.72;2.10;;;18.10;44.90;;;;;;5062024;28;20370;-62
2022/01/18 06:20:20;;;;;;;4.80;2.33;;;18.00;44.80;;;;;;5069254;28;20016;-62
2022/01/18 06:22:45;;;;;;;5.63;2.30;;;18.00;44.80;;;;;;5073132;28;20020;-62
2022/01/18 06:25:11;;;;;;;5.80;2.08;;;18.00;44.80;;;;;;5056872;28;20116;-63
2022/01/18 06:27:37;;;;;;;5.88;2.50;;;18.00;44.80;;;;;;5055748;28;20526;-63
2022/01/18 06:30:09;;;;;;;6.40;2.70;;;18.00;44.80;;;;;;5073300;28;20044;-63
2022/01/18 06:32:37;;;;;;;4.68;1.92;;;18.00;44.80;;;;;;5073106;28;20099;-63
2022/01/18 06:35:03;;;;;;;7.63;2.40;;;18.00;44.90;;;;;;5072213;28;20048;-63
2022/01/18 06:37:28;;;;;;;4.90;2.20;;;18.00;44.80;;;;;;5072381;28;20032;-63
2022/01/18 06:39:57;;;;;;;6.63;2.63;;;18.00;44.90;;;;;;5050670;28;20037;-63
2022/01/18 06:42:24;;;;;;;4.82;1.90;;;18.00;44.90;;;;;;5053324;28;20056;-63
2022/01/18 06:44:50;;;;;;;5.57;2.28;;;18.00;44.90;;;;;;5059390;28;20518;-63
2022/01/18 06:47:16;;;;;;;4.57;2.22;;;18.00;44.90;;;;;;5053382;28;20039;-63
2022/01/18 06:49:41;;;;;;;5.00;2.25;;;18.00;44.90;;;;;;5059090;28;20469;-62
2022/01/18 06:52:07;;;;;;;6.50;2.38;;;18.00;44.90;;;;;;5053678;28;20404;-63
2022/01/18 06:54:33;;;;;;;5.60;2.42;;;18.00;45.00;;;;;;5070172;28;20081;-63
2022/01/18 06:56:58;;;;;;;5.88;2.30;;;17.90;44.90;;;;;;5073401;28;20077;-63
2022/01/18 06:59:24;;;;;;;8.63;2.60;;;17.90;44.90;;;;;;5071391;28;20048;-63
2022/01/18 07:01:50;;;;;;;5.38;2.58;;;17.90;44.90;;;;;;5061805;28;20025;-62
2022/01/18 07:04:15;;;;;;;6.00;2.25;;;17.90;44.90;;;;;;5046245;28;20055;-61
2022/01/18 07:06:41;;;;;;;4.13;2.10;;;17.90;45.90;;;;;;5060803;28;20035;-61
2022/01/18 07:09:06;;;;;;;5.90;2.50;;;17.90;44.90;;;;;;5072120;28;20100;-61
2022/01/18 07:11:32;;;;;;;5.45;2.33;;;17.90;45.00;;;;;;5062173;28;20059;-61
2022/01/18 07:13:58;;;;;;;6.22;2.17;;;17.90;44.90;;;;;;5062144;28;20067;-61
2022/01/18 07:16:23;;;;;;;7.28;2.55;;;17.90;45.00;;;;;;5054415;28;20094;-61
2022/01/18 07:18:49;;;;;;;6.10;2.60;;;17.80;44.90;;;;;;5074134;28;20419;-62
2022/01/18 07:21:15;;;;;;;6.43;2.42;;;17.90;44.90;;;;;;5073127;28;20025;-61
2022/01/18 07:23:40;;;;;;;6.18;2.10;;;17.80;44.90;;;;;;5076510;28;20067;-62
2022/01/18 07:26:06;;;;;;;5.38;2.35;;;17.80;44.90;;;;;;5076202;28;20063;-61
2022/01/18 07:28:32;;;;;;;6.43;2.72;;;17.80;45.00;;;;;;5074666;28;20036;-63
2022/01/18 07:30:57;;;;;;;5.32;2.22;;;17.80;45.00;;;;;;5067248;28;20369;-63
2022/01/18 07:33:23;;;;;;;5.15;2.25;;;17.80;45.00;;;;;;5065181;28;20502;-63
2022/01/18 07:35:49;;;;;;;4.47;2.30;;;17.80;45.00;;;;;;5076228;28;20131;-62
2022/01/18 07:38:17;;;;;;;5.97;2.72;;;17.80;45.00;;;;;;5075626;28;20115;-62
2022/01/18 07:40:45;;;;;;;5.45;2.70;;;17.80;45.00;;;;;;5076990;28;20036;-61
2022/01/18 07:43:15;;;;;;;7.32;2.78;;;17.80;45.00;;;;;;5073998;28;20028;-63
2022/01/18 07:45:42;;;;;;;8.73;3.15;;;17.80;45.10;;;;;;5066780;28;20078;-62
2022/01/18 07:48:08;;;;;;;7.80;3.13;;;17.80;45.10;;;;;;5074139;28;20033;-62
2022/01/18 07:50:34;;;;;;;8.20;3.33;;;17.80;45.10;;;;;;5074124;28;20069;-62
2022/01/18 07:53:00;;;;;;;22.65;7.30;;;17.80;45.20;;;;;;5075139;28;20392;-64
2022/01/18 07:55:26;;;;;;;21.88;8.02;;;17.50;45.10;;;;;;5063923;28;20048;-64
2022/01/18 07:57:51;;;;;;;25.15;9.20;;;17.10;45.80;;;;;;5072611;28;20107;-64
2022/01/18 08:00:17;;;;;;;22.40;7.38;;;16.70;46.60;;;;;;5065048;28;20036;-67
2022/01/18 08:02:44;;;;;;;20.15;7.28;;;16.50;47.00;;;;;;5069991;28;20021;-67
2022/01/18 08:05:11;;;;;;;25.63;8.18;;;16.30;48.10;;;;;;5063716;28;20046;-66
2022/01/18 08:07:37;;;;;;;20.13;7.05;;;16.20;49.00;;;;;;5067830;28;20044;-68
2022/01/18 08:10:06;;;;;;;14.55;5.97;;;16.10;49.50;;;;;;5065546;28;20029;-68
2022/01/18 08:12:32;;;;;;;21.30;7.63;;;16.00;49.70;;;;;;5069303;28;20028;-68
2022/01/18 08:15:02;;;;;;;18.13;6.28;;;16.10;49.80;;;;;;5072758;28;20020;-67
2022/01/18 08:17:28;;;;;;;19.23;6.78;;;16.10;50.10;;;;;;5068195;28;20037;-67
2022/01/18 08:19:54;;;;;;;18.88;7.57;;;16.10;51.00;;;;;;5069158;28;20468;-68
2022/01/18 08:22:19;;;;;;;17.05;6.03;;;16.10;50.10;;;;;;5067750;28;20021;-66
2022/01/18 08:24:45;;;;;;;14.80;5.90;;;16.10;50.20;;;;;;5066660;28;20104;-69
2022/01/18 08:27:11;;;;;;;17.52;7.07;;;16.10;50.40;;;;;;5068814;28;20048;-68
2022/01/18 08:29:37;;;;;;;14.63;5.93;;;16.20;50.40;;;;;;5063739;28;20025;-66
2022/01/18 08:32:05;;;;;;;14.38;5.80;;;16.20;50.40;;;;;;5064734;28;20082;-67
2022/01/18 08:34:30;;;;;;;20.42;7.55;;;16.30;50.20;;;;;;5066399;28;20100;-67
2022/01/18 08:36:56;;;;;;;17.95;6.50;;;16.30;50.00;;;;;;5066227;28;20128;-67
2022/01/18 08:39:22;;;;;;;17.50;6.50;;;16.30;49.90;;;;;;5067513;28;20064;-67
2022/01/18 08:41:48;;;;;;;14.07;5.60;;;16.40;50.00;;;;;;5066653;28;20029;-68
2022/01/18 08:44:14;;;;;;;17.83;6.70;;;16.50;49.80;;;;;;5066976;28;20025;-67
2022/01/18 08:46:40;;;;;;;20.80;7.75;;;16.50;49.80;;;;;;5067922;28;20021;-67
2022/01/18 08:49:06;;;;;;;19.27;8.15;;;16.60;50.50;;;;;;5048224;28;20027;-66
2022/01/18 08:51:32;;;;;;;19.15;6.30;;;16.60;49.10;;;;;;5069229;28;20147;-67
2022/01/18 08:53:59;;;;;;;15.40;6.57;;;16.70;50.10;;;;;;5051456;28;20235;-67
2022/01/18 08:56:25;;;;;;;15.40;6.22;;;17.00;50.20;;;;;;5068996;28;20021;-66
2022/01/18 08:58:51;;;;;;;18.88;6.70;;;17.30;49.80;;;;;;5075671;28;20533;-66
2022/01/18 09:01:17;;;;;;;15.52;6.43;;;17.60;49.50;;;;;;5075532;28;20056;-66
2022/01/18 09:03:43;;;;;;;15.60;5.80;;;17.90;49.20;;;;;;5075262;28;20074;-66
2022/01/18 09:06:12;;;;;;;16.15;6.07;;;18.00;48.90;;;;;;5075365;28;20118;-66
2022/01/18 09:08:38;;;;;;;12.48;5.90;;;18.10;48.60;;;;;;5074982;28;20048;-66
2022/01/18 09:11:04;;;;;;;14.18;5.90;;;18.30;48.20;;;;;;5075355;28;20438;-66
2022/01/18 09:13:33;;;;;;;14.65;6.47;;;18.40;47.90;;;;;;5072301;28;20064;-66
2022/01/18 09:16:00;;;;;;;18.23;6.28;;;18.50;48.20;;;;;;5068072;28;20031;-67
2022/01/18 09:18:26;;;;;;;15.70;5.68;;;18.60;47.50;;;;;;5054908;28;20064;-66
2022/01/18 09:20:52;;;;;;;14.05;6.07;;;18.70;47.40;;;;;;5055258;28;20049;-66
2022/01/18 09:23:18;;;;;;;17.33;6.18;;;18.80;47.50;;;;;;5055045;28;20021;-66
2022/01/18 09:25:44;;;;;;;16.00;6.13;;;19.00;48.00;;;;;;5055011;28;20104;-67
2022/01/18 09:28:09;;;;;;;14.90;5.72;;;19.10;48.40;;;;;;5055610;28;20353;-67
2022/01/18 09:30:36;;;;;;;20.23;6.70;;;19.20;48.80;;;;;;5044844;28;20040;-67
2022/01/18 09:33:06;;;;;;;13.10;5.68;;;19.30;48.80;;;;;;5074640;28;20029;-67
2022/01/18 09:35:32;;;;;;;16.60;6.05;;;19.40;48.60;;;;;;5074822;28;20056;-66
2022/01/18 09:37:58;;;;;;;14.20;5.78;;;19.60;48.00;;;;;;5074036;28;20021;-67
2022/01/18 09:40:25;;;;;;;14.40;5.72;;;19.60;47.70;;;;;;5056224;28;20036;-66
2022/01/18 09:42:56;;;;;;;14.38;5.95;;;19.70;48.80;;;;;;5074681;28;20467;-66
2022/01/18 09:45:24;;;;;;;12.80;5.20;;;19.80;48.70;;;;;;5074268;28;20485;-67
2022/01/18 09:47:52;;;;;;;14.05;5.35;;;19.80;48.50;;;;;;5066996;28;20032;-66
2022/01/18 09:50:21;;;;;;;13.82;5.13;;;19.90;48.60;;;;;;5066429;28;20029;-67
2022/01/18 09:52:52;;;;;;;11.43;5.18;;;20.00;48.20;;;;;;5066024;28;20025;-67
2022/01/18 09:55:19;;;;;;;12.77;4.60;;;20.10;47.90;;;;;;5070834;28;20032;-66
2022/01/18 09:57:44;;;;;;;12.52;4.82;;;20.10;47.40;;;;;;5065489;28;20027;-65
2022/01/18 10:00:11;;;;;;;12.00;4.82;;;20.20;47.00;;;;;;5068381;28;20111;-66
2022/01/18 10:02:36;;;;;;;12.82;4.95;;;20.30;46.70;;;;;;5066880;28;20047;-65
2022/01/18 10:05:22;;;;;;;13.50;5.13;;;20.40;46.50;;;;;;5064756;28;20441;-65
2022/01/18 10:08:07;;;;;;;11.23;4.82;;;20.40;45.90;;;;;;5067708;28;20016;-66
2022/01/18 10:10:49;;;;;;;10.57;4.60;;;20.50;45.50;;;;;;5044163;28;20021;-65
2022/01/18 10:13:21;;;;;;;12.85;5.07;;;20.50;45.40;;;;;;5067079;28;20100;-65
2022/01/18 10:16:06;;;;;;;10.18;4.45;;;20.60;45.20;;;;;;5067903;28;20020;-65
2022/01/18 10:18:48;;;;;;;10.05;4.07;;;20.70;44.80;;;;;;5072567;28;20031;-66
2022/01/18 10:21:29;;;;;;;11.80;4.88;;;20.70;44.70;;;;;;5071602;28;20115;-66
2022/01/18 10:24:16;;;;;;;11.20;4.55;;;20.80;44.30;;;;;;5073827;28;20059;-66
2022/01/18 10:26:46;;;;;;;13.38;5.65;;;20.90;44.10;;;;;;5073998;28;20024;-67
2022/01/18 10:29:13;;;;;;;12.50;5.50;;;20.90;43.90;;;;;;5075495;28;20029;-67
2022/01/18 10:31:56;;;;;;;12.57;5.20;;;20.90;43.50;;;;;;5076328;28;20028;-67
2022/01/18 10:36:53;;;;;;;13.77;5.25;;;21.00;43.40;;;;;;5069273;28;20053;-68
2022/01/18 10:39:23;;;;;;;12.30;5.53;;;21.10;43.40;;;;;;5055008;28;20094;-67
2022/01/18 10:41:50;;;;;;;14.77;5.38;;;21.10;43.30;;;;;;5075000;28;20468;-67
2022/01/18 10:44:17;;;;;;;12.68;5.60;;;21.20;43.30;;;;;;5077651;28;20021;-67
2022/01/18 10:46:48;;;;;;;13.82;5.50;;;21.20;43.00;;;;;;5059676;28;20384;-67
2022/01/18 10:49:39;;;;;;;17.33;6.50;;;21.30;42.80;;;;;;5077677;28;20051;-66
2022/01/18 10:52:10;;;;;;;13.00;5.38;;;21.40;42.60;;;;;;5072628;28;20090;-67
2022/01/18 10:54:43;;;;;;;13.68;6.10;;;21.40;42.70;;;;;;5075242;28;20472;-66
2022/01/18 10:57:11;;;;;;;13.50;5.63;;;21.40;42.60;;;;;;5076944;28;20059;-66
2022/01/18 10:59:38;;;;;;;13.95;5.80;;;21.50;42.60;;;;;;5076440;28;20094;-66
2022/01/18 11:02:08;;;;;;;13.10;5.78;;;21.50;42.70;;;;;;5075345;28;20021;-66
2022/01/18 11:04:34;;;;;;;15.10;6.47;;;21.50;42.70;;;;;;5057036;28;20021;-67
2022/01/18 11:07:02;;;;;;;14.68;6.07;;;21.50;42.60;;;;;;5075252;28;20085;-67
2022/01/18 11:09:28;;;;;;;14.68;6.50;;;21.60;42.50;;;;;;5076264;28;20048;-67
2022/01/18 11:11:53;;;;;;;12.95;6.03;;;21.60;42.30;;;;;;5062248;28;20392;-67
2022/01/18 11:14:21;;;;;;;18.65;6.28;;;21.60;42.20;;;;;;5058198;28;20468;-67
2022/01/18 11:16:49;;;;;;;14.65;6.40;;;21.60;42.30;;;;;;5051698;28;20029;-66
2022/01/18 11:21:49;;;;;;;14.63;6.65;;;21.60;42.30;;;;;;5079636;28;20029;-67
2022/01/18 11:24:16;;;;;;;13.45;6.03;;;21.60;42.30;;;;;;5077497;28;20028;-66
2022/01/18 11:26:44;;;;;;;14.52;6.95;;;21.60;42.20;;;;;;5073674;28;20420;-66
2022/01/18 11:29:11;;;;;;;12.80;5.97;;;21.70;42.20;;;;;;5055061;28;20029;-67
2022/01/18 11:31:40;;;;;;;12.68;6.22;;;21.70;42.20;;;;;;5073202;28;20391;-67
2022/01/18 11:34:09;;;;;;;14.30;6.28;;;21.70;42.20;;;;;;5073059;28;20030;-67
2022/01/18 11:36:41;;;;;;;13.35;6.25;;;21.60;42.10;;;;;;5056963;28;20101;-69
2022/01/18 11:39:08;;;;;;;14.43;6.90;;;21.60;42.10;;;;;;5063524;28;20043;-66
2022/01/18 11:41:35;;;;;;;17.92;6.95;;;21.60;42.10;;;;;;5070376;28;20271;-66
2022/01/18 11:44:31;;;;;;;13.27;6.57;;;21.60;42.00;;;;;;5056700;28;20021;-67
2022/01/18 11:46:57;;;;;;;17.80;6.80;;;21.60;41.70;;;;;;5041532;28;20047;-67
2022/01/18 11:49:27;;;;;;;14.48;6.57;;;21.60;41.90;;;;;;5078488;28;20483;-66
2022/01/18 11:51:57;;;;;;;13.25;6.75;;;21.60;41.90;;;;;;5073730;28;20104;-66
2022/01/18 11:54:34;;;;;;;14.73;6.90;;;21.60;41.90;;;;;;5075074;28;20031;-67
2022/01/18 11:57:02;;;;;;;12.52;6.28;;;21.50;41.90;;;;;;5060585;28;20051;-66
2022/01/18 11:59:39;;;;;;;11.30;6.10;;;21.50;41.90;;;;;;5073592;28;20093;-66
2022/01/18 12:02:05;;;;;;;13.27;6.43;;;21.50;41.70;;;;;;5066606;28;20472;-66
2022/01/18 12:07:09;;;;;;;12.77;6.55;;;21.50;41.70;;;;;;5079155;28;20383;-66
2022/01/18 12:09:42;;;;;;;13.15;6.22;;;21.50;41.80;;;;;;5077834;28;20021;-66
2022/01/18 12:12:39;;;;;;;14.15;5.95;;;21.50;41.80;;;;;;5073958;28;20082;-67
2022/01/18 12:15:29;;;;;;;13.13;6.25;;;21.60;41.70;;;;;;5071012;28;20036;-67
2022/01/18 12:17:56;;;;;;;11.90;6.25;;;21.50;41.70;;;;;;5073166;28;20032;-66
2022/01/18 12:20:42;;;;;;;11.23;5.80;;;21.50;41.90;;;;;;5060041;28;20025;-66
2022/01/18 12:23:14;;;;;;;12.93;5.80;;;21.60;41.90;;;;;;5071345;28;20032;-66
2022/01/18 12:28:45;;;;;;;11.98;6.10;;;21.60;41.90;;;;;;5072924;28;20076;-66
2022/01/18 12:31:52;;;;;;;13.30;5.60;;;21.50;41.90;;;;;;5072351;28;20028;-67
2022/01/18 12:34:33;;;;;;;11.05;5.63;;;21.50;41.90;;;;;;5063817;28;20024;-66
2022/01/18 12:37:08;;;;;;;10.20;5.45;;;21.50;41.90;;;;;;5057238;28;20055;-66
2022/01/18 12:39:53;;;;;;;12.50;5.45;;;21.50;41.90;;;;;;5072923;28;20025;-66
2022/01/18 12:45:08;;;;;;;10.77;5.68;;;21.50;42.00;;;;;;5068795;28;20033;-66
2022/01/18 12:47:35;;;;;;;13.13;5.57;;;21.50;41.90;;;;;;5069369;28;20476;-66
2022/01/18 12:50:03;;;;;;;10.55;5.43;;;21.50;41.90;;;;;;5066159;28;20033;-66
2022/01/18 12:52:57;;;;;;;12.73;5.53;;;21.50;41.90;;;;;;5067314;28;20074;-66
2022/01/18 12:55:38;;;;;;;10.68;5.47;;;21.60;41.80;;;;;;5074932;28;20117;-66
2022/01/18 12:58:06;;;;;;;10.18;4.97;;;21.50;41.80;;;;;;5073916;28;20024;-66
2022/01/18 13:00:44;;;;;;;10.85;5.55;;;21.50;41.90;;;;;;5070620;28;20024;-67
2022/01/18 13:03:16;;;;;;;10.25;5.20;;;21.50;41.80;;;;;;5073977;28;20403;-67
2022/01/18 13:05:43;;;;;;;10.35;5.13;;;21.50;41.70;;;;;;5072821;28;20087;-67
2022/01/18 13:08:11;;;;;;;10.50;5.10;;;21.50;41.70;;;;;;5074707;28;20453;-67
2022/01/18 13:10:40;;;;;;;10.02;5.07;;;21.60;41.70;;;;;;5060221;28;20020;-67
2022/01/18 13:13:08;;;;;;;10.80;5.18;;;21.60;41.60;;;;;;5071054;28;20013;-66
2022/01/18 13:26:43;;;;;;;9.70;4.85;;;21.50;41.40;;;;;;5054439;28;20032;-66
2022/01/18 13:29:12;;;;;;;11.25;5.00;;;21.60;41.40;;;;;;5062337;28;20064;-66
2022/01/18 13:31:41;;;;;;;9.32;4.30;;;21.50;41.40;;;;;;5058361;28;20021;-66
2022/01/18 13:34:11;;;;;;;9.70;4.95;;;21.50;41.40;;;;;;5066393;28;20027;-66
2022/01/18 13:36:57;;;;;;;10.27;5.05;;;21.50;41.40;;;;;;5039828;28;20091;-66
2022/01/18 13:39:30;;;;;;;8.57;4.40;;;21.60;41.30;;;;;;5065908;28;20041;-66
2022/01/18 13:41:59;;;;;;;9.25;4.93;;;21.60;41.30;;;;;;5066386;28;20032;-66
2022/01/18 13:44:24;;;;;;;8.07;4.70;;;21.60;41.30;;;;;;5071238;28;20035;-66
2022/01/18 13:46:50;;;;;;;10.10;4.80;;;21.70;41.30;;;;;;5060969;28;20119;-66
2022/01/18 13:49:16;;;;;;;9.63;4.38;;;21.70;41.20;;;;;;5072307;28;20032;-66
2022/01/18 13:52:02;;;;;;;7.93;4.22;;;21.70;41.10;;;;;;5071441;28;20021;-66
2022/01/18 13:54:51;;;;;;;9.77;4.43;;;21.70;40.90;;;;;;5073712;28;20031;-66
2022/01/18 13:57:22;;;;;;;8.00;4.03;;;21.70;40.90;;;;;;5072265;28;20063;-67
2022/01/18 13:59:50;;;;;;;7.03;4.47;;;21.70;41.00;;;;;;5065593;28;20033;-67
2022/01/18 14:02:21;;;;;;;8.10;4.50;;;21.70;41.00;;;;;;5065920;28;20020;-67
2022/01/18 14:05:06;;;;;;;6.80;4.37;;;21.70;41.00;;;;;;5064822;28;20025;-67
2022/01/18 14:07:32;;;;;;;7.35;4.07;;;21.70;40.90;;;;;;5070488;28;20630;-68
2022/01/18 14:09:59;;;;;;;7.10;3.97;;;21.60;41.10;;;;;;5062212;28;20120;-68
2022/01/18 14:12:29;;;;;;;7.88;4.25;;;21.60;41.00;;;;;;5069786;28;20483;-68
2022/01/18 14:14:54;;;;;;;7.28;3.80;;;21.60;41.00;;;;;;5072298;28;20094;-68
2022/01/18 14:17:21;;;;;;;8.50;4.10;;;21.60;41.10;;;;;;5066508;28;20060;-68